sensor_id;sensor_type;location;lat;lon;timestamp;P1;durP1;ratioP1;P2;durP2;ratioP2
70071;SDS011;57434;42.794;23.302;2022-07-26T00:01:26;14.65;;;8.90;;
70071;SDS011;57434;42.794;23.302;2022-07-26T00:03:52;15.85;;;9.48;;
70071;SDS011;57434;42.794;23.302;2022-07-26T00:06:19;16.30;;;8.60;;
70071;SDS011;57434;42.794;23.302;2022-07-26T00:08:45;16.30;;;9.48;;
70071;SDS011;57434;42.794;23.302;2022-07-26T00:11:12;16.85;;;10.02;;
70071;SDS011;57434;42.794;23.302;2022-07-26T00:13:38;14.68;;;8.98;;
70071;SDS011;57434;42.794;23.302;2022-07-26T00:16:04;13.63;;;9.13;;
70071;SDS011;57434;42.794;23.302;2022-07-26T00:18:30;14.13;;;9.60;;
70071;SDS011;57434;42.794;23.302;2022-07-26T00:20:57;15.38;;;9.70;;
70071;SDS011;57434;42.794;23.302;2022-07-26T00:23:23;13.95;;;9.00;;
70071;SDS011;57434;42.794;23.302;2022-07-26T00:25:49;15.27;;;8.88;;
70071;SDS011;57434;42.794;23.302;2022-07-26T00:28:15;14.27;;;9.63;;
70071;SDS011;57434;42.794;23.302;2022-07-26T00:30:40;14.77;;;9.10;;
70071;SDS011;57434;42.794;23.302;2022-07-26T00:33:07;14.65;;;9.43;;
70071;SDS011;57434;42.794;23.302;2022-07-26T00:35:33;14.10;;;9.43;;
70071;SDS011;57434;42.794;23.302;2022-07-26T00:37:59;14.47;;;9.10;;
70071;SDS011;57434;42.794;23.302;2022-07-26T00:40:25;14.43;;;9.27;;
70071;SDS011;57434;42.794;23.302;2022-07-26T00:42:50;18.73;;;9.07;;
70071;SDS011;57434;42.794;23.302;2022-07-26T00:45:17;16.87;;;9.43;;
70071;SDS011;57434;42.794;23.302;2022-07-26T00:47:43;16.52;;;10.52;;
70071;SDS011;57434;42.794;23.302;2022-07-26T00:50:11;16.13;;;9.68;;
70071;SDS011;57434;42.794;23.302;2022-07-26T00:52:41;15.48;;;9.55;;
70071;SDS011;57434;42.794;23.302;2022-07-26T00:55:08;12.83;;;8.60;;
70071;SDS011;57434;42.794;23.302;2022-07-26T00:57:35;16.25;;;9.23;;
70071;SDS011;57434;42.794;23.302;2022-07-26T01:00:03;13.77;;;8.35;;
70071;SDS011;57434;42.794;23.302;2022-07-26T01:02:32;15.18;;;9.25;;
70071;SDS011;57434;42.794;23.302;2022-07-26T01:04:58;15.63;;;10.00;;
70071;SDS011;57434;42.794;23.302;2022-07-26T01:07:24;16.53;;;9.73;;
70071;SDS011;57434;42.794;23.302;2022-07-26T01:09:50;15.88;;;9.65;;
70071;SDS011;57434;42.794;23.302;2022-07-26T01:12:16;17.25;;;10.15;;
70071;SDS011;57434;42.794;23.302;2022-07-26T01:14:42;13.73;;;8.50;;
70071;SDS011;57434;42.794;23.302;2022-07-26T01:17:12;15.82;;;9.35;;
70071;SDS011;57434;42.794;23.302;2022-07-26T01:19:39;18.90;;;8.40;;
70071;SDS011;57434;42.794;23.302;2022-07-26T01:22:05;14.68;;;9.05;;
70071;SDS011;57434;42.794;23.302;2022-07-26T01:24:31;15.00;;;9.00;;
70071;SDS011;57434;42.794;23.302;2022-07-26T01:26:57;16.17;;;9.80;;
70071;SDS011;57434;42.794;23.302;2022-07-26T01:29:23;16.15;;;9.32;;
70071;SDS011;57434;42.794;23.302;2022-07-26T01:31:49;14.48;;;8.32;;
70071;SDS011;57434;42.794;23.302;2022-07-26T01:34:16;14.47;;;8.77;;
70071;SDS011;57434;42.794;23.302;2022-07-26T01:36:42;14.40;;;8.93;;
70071;SDS011;57434;42.794;23.302;2022-07-26T01:39:08;15.50;;;8.43;;
70071;SDS011;57434;42.794;23.302;2022-07-26T01:41:34;18.75;;;9.60;;
70071;SDS011;57434;42.794;23.302;2022-07-26T01:44:00;18.67;;;10.00;;
70071;SDS011;57434;42.794;23.302;2022-07-26T01:46:26;14.00;;;9.30;;
70071;SDS011;57434;42.794;23.302;2022-07-26T01:48:52;13.48;;;8.80;;
70071;SDS011;57434;42.794;23.302;2022-07-26T01:51:18;16.33;;;9.25;;
70071;SDS011;57434;42.794;23.302;2022-07-26T01:53:43;14.03;;;8.73;;
70071;SDS011;57434;42.794;23.302;2022-07-26T01:56:10;14.85;;;8.90;;
70071;SDS011;57434;42.794;23.302;2022-07-26T01:58:37;14.95;;;8.75;;
70071;SDS011;57434;42.794;23.302;2022-07-26T02:01:03;15.60;;;9.50;;
70071;SDS011;57434;42.794;23.302;2022-07-26T02:03:28;15.20;;;9.53;;
70071;SDS011;57434;42.794;23.302;2022-07-26T02:05:54;18.30;;;9.57;;
70071;SDS011;57434;42.794;23.302;2022-07-26T02:08:20;15.83;;;9.67;;
70071;SDS011;57434;42.794;23.302;2022-07-26T02:10:46;16.23;;;9.35;;
70071;SDS011;57434;42.794;23.302;2022-07-26T02:13:37;15.82;;;9.65;;
70071;SDS011;57434;42.794;23.302;2022-07-26T02:16:05;16.35;;;9.57;;
70071;SDS011;57434;42.794;23.302;2022-07-26T02:18:33;17.57;;;9.23;;
70071;SDS011;57434;42.794;23.302;2022-07-26T02:21:00;15.30;;;9.48;;
70071;SDS011;57434;42.794;23.302;2022-07-26T02:23:27;15.40;;;9.05;;
70071;SDS011;57434;42.794;23.302;2022-07-26T02:25:53;17.60;;;9.38;;
70071;SDS011;57434;42.794;23.302;2022-07-26T02:28:20;15.82;;;9.60;;
70071;SDS011;57434;42.794;23.302;2022-07-26T02:30:46;14.67;;;8.40;;
70071;SDS011;57434;42.794;23.302;2022-07-26T02:33:14;17.40;;;9.90;;
70071;SDS011;57434;42.794;23.302;2022-07-26T02:35:41;15.30;;;9.52;;
70071;SDS011;57434;42.794;23.302;2022-07-26T02:38:08;16.58;;;8.90;;
70071;SDS011;57434;42.794;23.302;2022-07-26T02:40:36;15.27;;;9.77;;
70071;SDS011;57434;42.794;23.302;2022-07-26T02:43:03;14.27;;;9.03;;
70071;SDS011;57434;42.794;23.302;2022-07-26T02:45:31;13.55;;;8.70;;
70071;SDS011;57434;42.794;23.302;2022-07-26T02:47:57;15.48;;;9.50;;
70071;SDS011;57434;42.794;23.302;2022-07-26T02:50:24;15.35;;;9.27;;
70071;SDS011;57434;42.794;23.302;2022-07-26T02:52:51;15.55;;;9.48;;
70071;SDS011;57434;42.794;23.302;2022-07-26T02:55:19;19.00;;;9.60;;
70071;SDS011;57434;42.794;23.302;2022-07-26T02:57:46;15.20;;;9.30;;
70071;SDS011;57434;42.794;23.302;2022-07-26T03:00:13;20.25;;;9.02;;
70071;SDS011;57434;42.794;23.302;2022-07-26T03:02:40;17.25;;;9.80;;
70071;SDS011;57434;42.794;23.302;2022-07-26T03:05:07;15.10;;;9.63;;
70071;SDS011;57434;42.794;23.302;2022-07-26T03:07:33;16.37;;;9.33;;
70071;SDS011;57434;42.794;23.302;2022-07-26T03:09:59;15.85;;;9.13;;
70071;SDS011;57434;42.794;23.302;2022-07-26T03:12:25;13.52;;;8.50;;
70071;SDS011;57434;42.794;23.302;2022-07-26T03:14:51;17.13;;;9.45;;
70071;SDS011;57434;42.794;23.302;2022-07-26T03:17:17;14.35;;;9.23;;
70071;SDS011;57434;42.794;23.302;2022-07-26T03:19:43;15.77;;;9.37;;
70071;SDS011;57434;42.794;23.302;2022-07-26T03:22:09;15.40;;;9.30;;
70071;SDS011;57434;42.794;23.302;2022-07-26T03:24:35;18.08;;;9.65;;
70071;SDS011;57434;42.794;23.302;2022-07-26T03:27:01;18.20;;;10.27;;
70071;SDS011;57434;42.794;23.302;2022-07-26T03:29:28;15.13;;;9.38;;
70071;SDS011;57434;42.794;23.302;2022-07-26T03:31:53;15.70;;;9.00;;
70071;SDS011;57434;42.794;23.302;2022-07-26T03:34:19;14.98;;;8.48;;
70071;SDS011;57434;42.794;23.302;2022-07-26T03:36:45;15.88;;;9.45;;
70071;SDS011;57434;42.794;23.302;2022-07-26T03:39:11;16.30;;;9.00;;
70071;SDS011;57434;42.794;23.302;2022-07-26T03:41:37;15.45;;;8.85;;
70071;SDS011;57434;42.794;23.302;2022-07-26T03:44:03;15.23;;;9.18;;
70071;SDS011;57434;42.794;23.302;2022-07-26T03:46:29;22.97;;;10.70;;
70071;SDS011;57434;42.794;23.302;2022-07-26T03:48:55;21.73;;;11.07;;
70071;SDS011;57434;42.794;23.302;2022-07-26T03:51:21;20.13;;;10.65;;
70071;SDS011;57434;42.794;23.302;2022-07-26T03:53:48;18.98;;;10.68;;
70071;SDS011;57434;42.794;23.302;2022-07-26T03:56:14;18.77;;;11.13;;
70071;SDS011;57434;42.794;23.302;2022-07-26T03:59:03;18.77;;;10.60;;
70071;SDS011;57434;42.794;23.302;2022-07-26T04:01:31;20.38;;;11.38;;
70071;SDS011;57434;42.794;23.302;2022-07-26T04:03:59;22.02;;;11.75;;
70071;SDS011;57434;42.794;23.302;2022-07-26T04:06:25;19.38;;;10.93;;
70071;SDS011;57434;42.794;23.302;2022-07-26T04:08:52;17.23;;;10.80;;
70071;SDS011;57434;42.794;23.302;2022-07-26T04:11:33;21.73;;;10.90;;
70071;SDS011;57434;42.794;23.302;2022-07-26T04:13:59;19.05;;;10.77;;
70071;SDS011;57434;42.794;23.302;2022-07-26T04:16:26;19.45;;;11.13;;
70071;SDS011;57434;42.794;23.302;2022-07-26T04:18:52;19.33;;;11.27;;
70071;SDS011;57434;42.794;23.302;2022-07-26T04:21:18;17.90;;;10.10;;
70071;SDS011;57434;42.794;23.302;2022-07-26T04:23:44;16.63;;;10.07;;
70071;SDS011;57434;42.794;23.302;2022-07-26T04:26:10;19.02;;;10.70;;
70071;SDS011;57434;42.794;23.302;2022-07-26T04:28:38;17.70;;;10.98;;
70071;SDS011;57434;42.794;23.302;2022-07-26T04:31:05;19.48;;;11.07;;
70071;SDS011;57434;42.794;23.302;2022-07-26T04:33:31;19.90;;;11.27;;
70071;SDS011;57434;42.794;23.302;2022-07-26T04:35:58;17.73;;;10.48;;
70071;SDS011;57434;42.794;23.302;2022-07-26T04:38:24;18.17;;;10.93;;
70071;SDS011;57434;42.794;23.302;2022-07-26T04:40:50;22.20;;;11.95;;
70071;SDS011;57434;42.794;23.302;2022-07-26T04:43:17;18.77;;;12.18;;
70071;SDS011;57434;42.794;23.302;2022-07-26T04:45:46;21.00;;;11.33;;
70071;SDS011;57434;42.794;23.302;2022-07-26T04:48:12;19.15;;;11.90;;
70071;SDS011;57434;42.794;23.302;2022-07-26T04:50:41;19.85;;;11.85;;
70071;SDS011;57434;42.794;23.302;2022-07-26T04:53:07;18.80;;;11.85;;
70071;SDS011;57434;42.794;23.302;2022-07-26T04:55:35;20.85;;;12.70;;
70071;SDS011;57434;42.794;23.302;2022-07-26T04:58:02;19.13;;;11.70;;
70071;SDS011;57434;42.794;23.302;2022-07-26T05:00:29;19.05;;;11.45;;
70071;SDS011;57434;42.794;23.302;2022-07-26T05:02:55;18.48;;;11.38;;
70071;SDS011;57434;42.794;23.302;2022-07-26T05:05:23;20.70;;;11.98;;
70071;SDS011;57434;42.794;23.302;2022-07-26T05:07:51;16.83;;;11.27;;
70071;SDS011;57434;42.794;23.302;2022-07-26T05:10:19;18.70;;;11.93;;
70071;SDS011;57434;42.794;23.302;2022-07-26T05:12:47;18.88;;;11.68;;
70071;SDS011;57434;42.794;23.302;2022-07-26T05:15:14;20.20;;;11.48;;
70071;SDS011;57434;42.794;23.302;2022-07-26T05:17:40;20.40;;;12.13;;
70071;SDS011;57434;42.794;23.302;2022-07-26T05:20:07;18.70;;;12.13;;
70071;SDS011;57434;42.794;23.302;2022-07-26T05:22:34;19.03;;;11.37;;
70071;SDS011;57434;42.794;23.302;2022-07-26T05:25:01;17.95;;;11.90;;
70071;SDS011;57434;42.794;23.302;2022-07-26T05:27:28;19.35;;;12.30;;
70071;SDS011;57434;42.794;23.302;2022-07-26T05:29:54;21.67;;;12.35;;
70071;SDS011;57434;42.794;23.302;2022-07-26T05:32:21;17.23;;;11.53;;
70071;SDS011;57434;42.794;23.302;2022-07-26T05:34:47;19.48;;;12.57;;
70071;SDS011;57434;42.794;23.302;2022-07-26T05:37:13;19.23;;;12.93;;
70071;SDS011;57434;42.794;23.302;2022-07-26T05:39:39;20.80;;;12.40;;
70071;SDS011;57434;42.794;23.302;2022-07-26T05:42:05;20.20;;;12.40;;
70071;SDS011;57434;42.794;23.302;2022-07-26T05:44:31;20.65;;;12.98;;
70071;SDS011;57434;42.794;23.302;2022-07-26T05:47:00;20.33;;;12.38;;
70071;SDS011;57434;42.794;23.302;2022-07-26T05:49:28;19.63;;;13.18;;
70071;SDS011;57434;42.794;23.302;2022-07-26T05:51:54;24.67;;;13.83;;
70071;SDS011;57434;42.794;23.302;2022-07-26T05:54:20;19.17;;;12.70;;
70071;SDS011;57434;42.794;23.302;2022-07-26T05:56:46;20.67;;;13.43;;
70071;SDS011;57434;42.794;23.302;2022-07-26T05:59:12;20.37;;;12.43;;
70071;SDS011;57434;42.794;23.302;2022-07-26T06:01:38;17.27;;;11.73;;
70071;SDS011;57434;42.794;23.302;2022-07-26T06:04:03;18.75;;;11.95;;
70071;SDS011;57434;42.794;23.302;2022-07-26T06:06:29;17.83;;;12.10;;
70071;SDS011;57434;42.794;23.302;2022-07-26T06:08:55;18.08;;;12.35;;
70071;SDS011;57434;42.794;23.302;2022-07-26T06:11:21;20.63;;;12.57;;
70071;SDS011;57434;42.794;23.302;2022-07-26T06:13:47;17.38;;;11.85;;
70071;SDS011;57434;42.794;23.302;2022-07-26T06:16:16;21.95;;;13.38;;
70071;SDS011;57434;42.794;23.302;2022-07-26T06:18:42;16.60;;;11.57;;
70071;SDS011;57434;42.794;23.302;2022-07-26T06:21:08;18.35;;;12.13;;
70071;SDS011;57434;42.794;23.302;2022-07-26T06:23:34;20.97;;;12.57;;
70071;SDS011;57434;42.794;23.302;2022-07-26T06:25:59;20.85;;;11.95;;
70071;SDS011;57434;42.794;23.302;2022-07-26T06:28:25;17.80;;;10.98;;
70071;SDS011;57434;42.794;23.302;2022-07-26T06:30:51;17.93;;;11.33;;
70071;SDS011;57434;42.794;23.302;2022-07-26T06:33:17;16.92;;;10.65;;
70071;SDS011;57434;42.794;23.302;2022-07-26T06:35:43;18.07;;;10.70;;
70071;SDS011;57434;42.794;23.302;2022-07-26T06:38:08;18.02;;;11.63;;
70071;SDS011;57434;42.794;23.302;2022-07-26T06:40:34;18.27;;;11.07;;
70071;SDS011;57434;42.794;23.302;2022-07-26T06:43:01;16.58;;;11.57;;
70071;SDS011;57434;42.794;23.302;2022-07-26T06:45:28;15.48;;;10.65;;
70071;SDS011;57434;42.794;23.302;2022-07-26T06:47:54;16.05;;;11.30;;
70071;SDS011;57434;42.794;23.302;2022-07-26T06:50:20;17.85;;;10.57;;
70071;SDS011;57434;42.794;23.302;2022-07-26T06:52:46;21.73;;;11.60;;
70071;SDS011;57434;42.794;23.302;2022-07-26T06:55:12;17.83;;;10.98;;
70071;SDS011;57434;42.794;23.302;2022-07-26T06:57:39;18.05;;;10.82;;
70071;SDS011;57434;42.794;23.302;2022-07-26T07:00:05;14.63;;;11.30;;
70071;SDS011;57434;42.794;23.302;2022-07-26T07:02:33;15.25;;;11.05;;
70071;SDS011;57434;42.794;23.302;2022-07-26T07:04:59;20.10;;;12.10;;
70071;SDS011;57434;42.794;23.302;2022-07-26T07:07:25;16.33;;;11.50;;
70071;SDS011;57434;42.794;23.302;2022-07-26T07:09:50;16.20;;;11.90;;
70071;SDS011;57434;42.794;23.302;2022-07-26T07:12:16;16.00;;;10.77;;
70071;SDS011;57434;42.794;23.302;2022-07-26T07:14:42;18.17;;;11.05;;
70071;SDS011;57434;42.794;23.302;2022-07-26T07:17:08;17.00;;;12.57;;
70071;SDS011;57434;42.794;23.302;2022-07-26T07:19:35;20.00;;;12.90;;
70071;SDS011;57434;42.794;23.302;2022-07-26T07:22:02;17.33;;;11.07;;
70071;SDS011;57434;42.794;23.302;2022-07-26T07:24:29;18.45;;;11.60;;
70071;SDS011;57434;42.794;23.302;2022-07-26T07:26:55;18.35;;;11.77;;
70071;SDS011;57434;42.794;23.302;2022-07-26T07:29:21;16.67;;;12.20;;
70071;SDS011;57434;42.794;23.302;2022-07-26T07:31:47;15.43;;;11.13;;
70071;SDS011;57434;42.794;23.302;2022-07-26T07:34:13;17.52;;;11.68;;
70071;SDS011;57434;42.794;23.302;2022-07-26T07:36:40;21.35;;;13.32;;
70071;SDS011;57434;42.794;23.302;2022-07-26T07:39:06;16.97;;;11.23;;
70071;SDS011;57434;42.794;23.302;2022-07-26T07:41:32;14.98;;;10.90;;
70071;SDS011;57434;42.794;23.302;2022-07-26T07:44:01;19.92;;;12.65;;
70071;SDS011;57434;42.794;23.302;2022-07-26T07:46:26;16.67;;;12.70;;
70071;SDS011;57434;42.794;23.302;2022-07-26T07:48:52;17.87;;;11.40;;
70071;SDS011;57434;42.794;23.302;2022-07-26T07:51:18;17.95;;;12.07;;
70071;SDS011;57434;42.794;23.302;2022-07-26T07:53:44;16.35;;;12.00;;
70071;SDS011;57434;42.794;23.302;2022-07-26T07:56:10;18.13;;;12.10;;
70071;SDS011;57434;42.794;23.302;2022-07-26T07:58:36;18.13;;;11.47;;
70071;SDS011;57434;42.794;23.302;2022-07-26T08:01:01;17.33;;;11.60;;
70071;SDS011;57434;42.794;23.302;2022-07-26T08:03:28;17.58;;;12.73;;
70071;SDS011;57434;42.794;23.302;2022-07-26T08:05:53;18.63;;;11.27;;
70071;SDS011;57434;42.794;23.302;2022-07-26T08:08:19;16.58;;;11.57;;
70071;SDS011;57434;42.794;23.302;2022-07-26T08:10:45;17.93;;;11.23;;
70071;SDS011;57434;42.794;23.302;2022-07-26T08:13:11;17.20;;;11.30;;
70071;SDS011;57434;42.794;23.302;2022-07-26T08:15:37;15.50;;;11.70;;
70071;SDS011;57434;42.794;23.302;2022-07-26T08:18:02;15.00;;;10.53;;
70071;SDS011;57434;42.794;23.302;2022-07-26T08:20:28;15.57;;;10.95;;
70071;SDS011;57434;42.794;23.302;2022-07-26T08:22:54;15.27;;;11.13;;
70071;SDS011;57434;42.794;23.302;2022-07-26T08:25:20;16.45;;;11.68;;
70071;SDS011;57434;42.794;23.302;2022-07-26T08:27:46;16.40;;;11.25;;
70071;SDS011;57434;42.794;23.302;2022-07-26T08:30:12;16.95;;;11.70;;
70071;SDS011;57434;42.794;23.302;2022-07-26T08:32:38;16.70;;;11.73;;
70071;SDS011;57434;42.794;23.302;2022-07-26T08:35:04;15.23;;;12.13;;
70071;SDS011;57434;42.794;23.302;2022-07-26T08:37:30;19.25;;;11.65;;
70071;SDS011;57434;42.794;23.302;2022-07-26T08:39:56;15.57;;;11.40;;
70071;SDS011;57434;42.794;23.302;2022-07-26T08:42:22;19.23;;;12.05;;
70071;SDS011;57434;42.794;23.302;2022-07-26T08:44:48;23.85;;;12.45;;
70071;SDS011;57434;42.794;23.302;2022-07-26T08:47:16;16.93;;;11.57;;
70071;SDS011;57434;42.794;23.302;2022-07-26T08:49:43;15.65;;;11.43;;
70071;SDS011;57434;42.794;23.302;2022-07-26T08:52:10;14.98;;;11.45;;
70071;SDS011;57434;42.794;23.302;2022-07-26T08:54:55;20.17;;;12.10;;
70071;SDS011;57434;42.794;23.302;2022-07-26T08:57:21;17.23;;;11.95;;
70071;SDS011;57434;42.794;23.302;2022-07-26T09:00:06;19.07;;;12.70;;
70071;SDS011;57434;42.794;23.302;2022-07-26T09:02:43;17.50;;;11.65;;
70071;SDS011;57434;42.794;23.302;2022-07-26T09:05:09;18.88;;;11.75;;
70071;SDS011;57434;42.794;23.302;2022-07-26T09:07:36;18.42;;;11.90;;
70071;SDS011;57434;42.794;23.302;2022-07-26T09:12:35;16.38;;;11.57;;
70071;SDS011;57434;42.794;23.302;2022-07-26T09:15:02;16.10;;;11.18;;
70071;SDS011;57434;42.794;23.302;2022-07-26T09:17:38;17.63;;;11.65;;
70071;SDS011;57434;42.794;23.302;2022-07-26T09:20:13;15.90;;;11.25;;
70071;SDS011;57434;42.794;23.302;2022-07-26T09:23:03;15.33;;;11.13;;
70071;SDS011;57434;42.794;23.302;2022-07-26T09:25:35;17.60;;;11.40;;
70071;SDS011;57434;42.794;23.302;2022-07-26T09:30:55;19.23;;;11.13;;
70071;SDS011;57434;42.794;23.302;2022-07-26T09:33:22;18.58;;;12.50;;
70071;SDS011;57434;42.794;23.302;2022-07-26T09:36:02;16.20;;;11.40;;
70071;SDS011;57434;42.794;23.302;2022-07-26T09:41:19;15.75;;;10.40;;
70071;SDS011;57434;42.794;23.302;2022-07-26T09:43:55;14.27;;;9.38;;
70071;SDS011;57434;42.794;23.302;2022-07-26T09:46:24;11.60;;;8.82;;
70071;SDS011;57434;42.794;23.302;2022-07-26T09:48:51;11.30;;;8.23;;
70071;SDS011;57434;42.794;23.302;2022-07-26T09:52:00;14.70;;;8.35;;
70071;SDS011;57434;42.794;23.302;2022-07-26T09:54:08;14.10;;;8.50;;
70071;SDS011;57434;42.794;23.302;2022-07-26T09:56:48;13.45;;;9.35;;
70071;SDS011;57434;42.794;23.302;2022-07-26T09:59:17;13.55;;;9.23;;
70071;SDS011;57434;42.794;23.302;2022-07-26T10:01:46;13.50;;;8.53;;
70071;SDS011;57434;42.794;23.302;2022-07-26T10:04:13;14.68;;;9.35;;
70071;SDS011;57434;42.794;23.302;2022-07-26T10:06:39;13.98;;;10.85;;
70071;SDS011;57434;42.794;23.302;2022-07-26T10:09:05;16.20;;;10.35;;
70071;SDS011;57434;42.794;23.302;2022-07-26T10:11:46;15.95;;;10.10;;
70071;SDS011;57434;42.794;23.302;2022-07-26T10:14:33;12.83;;;9.80;;
70071;SDS011;57434;42.794;23.302;2022-07-26T10:17:37;13.00;;;9.23;;
70071;SDS011;57434;42.794;23.302;2022-07-26T10:19:46;13.13;;;8.75;;
70071;SDS011;57434;42.794;23.302;2022-07-26T10:22:22;13.45;;;8.70;;
70071;SDS011;57434;42.794;23.302;2022-07-26T10:24:57;12.10;;;9.00;;
70071;SDS011;57434;42.794;23.302;2022-07-26T10:27:50;12.60;;;8.17;;
70071;SDS011;57434;42.794;23.302;2022-07-26T10:38:01;10.10;;;7.82;;
70071;SDS011;57434;42.794;23.302;2022-07-26T10:40:31;10.70;;;7.97;;
70071;SDS011;57434;42.794;23.302;2022-07-26T10:43:07;9.70;;;7.15;;
70071;SDS011;57434;42.794;23.302;2022-07-26T10:45:40;9.95;;;8.02;;
70071;SDS011;57434;42.794;23.302;2022-07-26T10:48:11;10.32;;;7.65;;
70071;SDS011;57434;42.794;23.302;2022-07-26T10:50:41;10.30;;;7.83;;
70071;SDS011;57434;42.794;23.302;2022-07-26T10:53:09;9.95;;;7.43;;
70071;SDS011;57434;42.794;23.302;2022-07-26T10:55:47;10.57;;;8.20;;
70071;SDS011;57434;42.794;23.302;2022-07-26T10:58:17;11.77;;;7.53;;
70071;SDS011;57434;42.794;23.302;2022-07-26T11:00:53;10.63;;;7.85;;
70071;SDS011;57434;42.794;23.302;2022-07-26T11:03:38;11.50;;;7.93;;
70071;SDS011;57434;42.794;23.302;2022-07-26T11:06:16;11.30;;;8.20;;
70071;SDS011;57434;42.794;23.302;2022-07-26T11:08:44;10.63;;;8.32;;
70071;SDS011;57434;42.794;23.302;2022-07-26T11:11:11;11.45;;;8.07;;
70071;SDS011;57434;42.794;23.302;2022-07-26T11:13:38;12.60;;;8.43;;
70071;SDS011;57434;42.794;23.302;2022-07-26T11:16:05;12.47;;;8.50;;
70071;SDS011;57434;42.794;23.302;2022-07-26T11:18:36;11.50;;;8.13;;
70071;SDS011;57434;42.794;23.302;2022-07-26T11:21:13;9.73;;;7.70;;
70071;SDS011;57434;42.794;23.302;2022-07-26T11:23:43;13.40;;;8.57;;
70071;SDS011;57434;42.794;23.302;2022-07-26T11:26:18;14.20;;;9.50;;
70071;SDS011;57434;42.794;23.302;2022-07-26T11:28:54;13.17;;;8.60;;
70071;SDS011;57434;42.794;23.302;2022-07-26T11:31:25;14.38;;;9.13;;
70071;SDS011;57434;42.794;23.302;2022-07-26T11:34:14;12.02;;;9.15;;
70071;SDS011;57434;42.794;23.302;2022-07-26T11:36:43;12.90;;;9.60;;
70071;SDS011;57434;42.794;23.302;2022-07-26T11:39:14;12.50;;;9.02;;
70071;SDS011;57434;42.794;23.302;2022-07-26T11:41:45;11.60;;;9.37;;
70071;SDS011;57434;42.794;23.302;2022-07-26T11:44:18;14.13;;;8.63;;
70071;SDS011;57434;42.794;23.302;2022-07-26T11:46:46;12.30;;;9.05;;
70071;SDS011;57434;42.794;23.302;2022-07-26T11:49:14;12.95;;;9.98;;
70071;SDS011;57434;42.794;23.302;2022-07-26T11:51:48;12.05;;;9.32;;
70071;SDS011;57434;42.794;23.302;2022-07-26T11:54:23;12.80;;;10.30;;
70071;SDS011;57434;42.794;23.302;2022-07-26T11:56:57;12.93;;;8.88;;
70071;SDS011;57434;42.794;23.302;2022-07-26T11:59:26;12.57;;;9.07;;
70071;SDS011;57434;42.794;23.302;2022-07-26T12:01:53;11.13;;;9.60;;
70071;SDS011;57434;42.794;23.302;2022-07-26T12:04:25;11.20;;;9.30;;
70071;SDS011;57434;42.794;23.302;2022-07-26T12:06:53;11.80;;;9.03;;
70071;SDS011;57434;42.794;23.302;2022-07-26T12:09:27;10.80;;;8.45;;
70071;SDS011;57434;42.794;23.302;2022-07-26T12:11:59;11.88;;;9.00;;
70071;SDS011;57434;42.794;23.302;2022-07-26T12:14:27;12.15;;;8.38;;
70071;SDS011;57434;42.794;23.302;2022-07-26T12:16:54;12.25;;;8.63;;
70071;SDS011;57434;42.794;23.302;2022-07-26T12:27:15;11.00;;;8.37;;
70071;SDS011;57434;42.794;23.302;2022-07-26T12:29:47;10.80;;;8.30;;
70071;SDS011;57434;42.794;23.302;2022-07-26T12:32:18;10.73;;;7.80;;
70071;SDS011;57434;42.794;23.302;2022-07-26T12:34:57;10.43;;;8.32;;
70071;SDS011;57434;42.794;23.302;2022-07-26T12:40:11;15.20;;;8.60;;
70071;SDS011;57434;42.794;23.302;2022-07-26T12:42:42;11.88;;;8.35;;
70071;SDS011;57434;42.794;23.302;2022-07-26T12:45:10;10.73;;;8.18;;
70071;SDS011;57434;42.794;23.302;2022-07-26T12:47:38;10.43;;;8.43;;
70071;SDS011;57434;42.794;23.302;2022-07-26T12:50:05;11.88;;;7.88;;
70071;SDS011;57434;42.794;23.302;2022-07-26T12:52:33;13.50;;;8.77;;
70071;SDS011;57434;42.794;23.302;2022-07-26T12:54:59;11.88;;;7.65;;
70071;SDS011;57434;42.794;23.302;2022-07-26T12:57:25;15.32;;;8.00;;
70071;SDS011;57434;42.794;23.302;2022-07-26T12:59:52;13.43;;;8.15;;
70071;SDS011;57434;42.794;23.302;2022-07-26T13:02:19;12.65;;;8.30;;
70071;SDS011;57434;42.794;23.302;2022-07-26T13:04:45;15.23;;;8.07;;
70071;SDS011;57434;42.794;23.302;2022-07-26T13:07:13;10.35;;;8.07;;
70071;SDS011;57434;42.794;23.302;2022-07-26T13:09:40;10.25;;;8.05;;
70071;SDS011;57434;42.794;23.302;2022-07-26T13:12:06;11.57;;;7.70;;
70071;SDS011;57434;42.794;23.302;2022-07-26T13:14:33;10.57;;;8.05;;
70071;SDS011;57434;42.794;23.302;2022-07-26T13:17:00;11.20;;;7.67;;
70071;SDS011;57434;42.794;23.302;2022-07-26T13:19:26;10.38;;;7.57;;
70071;SDS011;57434;42.794;23.302;2022-07-26T13:21:52;10.80;;;8.73;;
70071;SDS011;57434;42.794;23.302;2022-07-26T13:24:19;11.18;;;8.13;;
70071;SDS011;57434;42.794;23.302;2022-07-26T13:26:45;9.90;;;7.10;;
70071;SDS011;57434;42.794;23.302;2022-07-26T13:29:10;10.40;;;7.50;;
70071;SDS011;57434;42.794;23.302;2022-07-26T13:31:36;10.40;;;7.23;;
70071;SDS011;57434;42.794;23.302;2022-07-26T13:34:02;12.15;;;8.35;;
70071;SDS011;57434;42.794;23.302;2022-07-26T13:36:29;10.18;;;7.10;;
70071;SDS011;57434;42.794;23.302;2022-07-26T13:38:55;10.43;;;6.90;;
70071;SDS011;57434;42.794;23.302;2022-07-26T13:41:21;9.70;;;7.50;;
70071;SDS011;57434;42.794;23.302;2022-07-26T13:43:47;13.82;;;8.52;;
70071;SDS011;57434;42.794;23.302;2022-07-26T13:46:15;10.75;;;7.43;;
70071;SDS011;57434;42.794;23.302;2022-07-26T13:48:41;10.32;;;7.50;;
70071;SDS011;57434;42.794;23.302;2022-07-26T13:51:07;9.73;;;7.73;;
70071;SDS011;57434;42.794;23.302;2022-07-26T13:53:33;15.57;;;8.20;;
70071;SDS011;57434;42.794;23.302;2022-07-26T13:56:00;12.98;;;7.80;;
70071;SDS011;57434;42.794;23.302;2022-07-26T13:58:26;11.35;;;7.90;;
70071;SDS011;57434;42.794;23.302;2022-07-26T14:00:52;11.90;;;8.05;;
70071;SDS011;57434;42.794;23.302;2022-07-26T14:03:18;11.63;;;8.33;;
70071;SDS011;57434;42.794;23.302;2022-07-26T14:05:44;9.88;;;7.65;;
70071;SDS011;57434;42.794;23.302;2022-07-26T14:08:11;11.48;;;7.57;;
70071;SDS011;57434;42.794;23.302;2022-07-26T14:10:38;11.98;;;8.35;;
70071;SDS011;57434;42.794;23.302;2022-07-26T14:13:05;10.13;;;7.60;;
70071;SDS011;57434;42.794;23.302;2022-07-26T14:15:32;11.18;;;7.80;;
70071;SDS011;57434;42.794;23.302;2022-07-26T14:17:58;10.77;;;8.02;;
70071;SDS011;57434;42.794;23.302;2022-07-26T14:20:25;11.68;;;7.47;;
70071;SDS011;57434;42.794;23.302;2022-07-26T14:22:53;9.15;;;7.47;;
70071;SDS011;57434;42.794;23.302;2022-07-26T14:25:22;11.27;;;8.00;;
70071;SDS011;57434;42.794;23.302;2022-07-26T14:27:49;9.55;;;7.57;;
70071;SDS011;57434;42.794;23.302;2022-07-26T14:30:17;9.30;;;7.53;;
70071;SDS011;57434;42.794;23.302;2022-07-26T14:32:47;10.23;;;7.72;;
70071;SDS011;57434;42.794;23.302;2022-07-26T14:35:14;9.65;;;7.85;;
70071;SDS011;57434;42.794;23.302;2022-07-26T14:37:43;12.63;;;7.90;;
70071;SDS011;57434;42.794;23.302;2022-07-26T14:40:09;10.18;;;7.75;;
70071;SDS011;57434;42.794;23.302;2022-07-26T14:42:36;11.32;;;7.53;;
70071;SDS011;57434;42.794;23.302;2022-07-26T14:45:02;11.27;;;8.67;;
70071;SDS011;57434;42.794;23.302;2022-07-26T14:47:28;10.95;;;8.40;;